createdAt,value
2022-07-27T00:01:05.731Z,22.90
2022-07-27T00:03:33.775Z,22.80
2022-07-27T00:06:01.803Z,22.70
2022-07-27T00:08:29.664Z,22.70
2022-07-27T00:10:57.683Z,22.70
2022-07-27T00:13:27.407Z,22.70
2022-07-27T00:15:55.330Z,22.70
2022-07-27T00:18:23.228Z,22.70
2022-07-27T00:20:51.140Z,22.80
2022-07-27T00:23:19.081Z,22.80
2022-07-27T00:25:47.033Z,22.90
2022-07-27T00:28:15.012Z,22.80
2022-07-27T00:30:44.223Z,22.90
2022-07-27T00:33:16.919Z,22.90
2022-07-27T00:35:45.737Z,22.90
2022-07-27T00:38:13.689Z,22.90
2022-07-27T00:40:41.607Z,22.90
2022-07-27T00:43:09.561Z,22.90
2022-07-27T00:45:37.548Z,22.90
2022-07-27T00:48:07.421Z,22.90
2022-07-27T00:50:36.270Z,22.90
2022-07-27T00:53:05.859Z,22.80
2022-07-27T00:55:34.317Z,22.80
2022-07-27T00:58:04.890Z,22.80
2022-07-27T01:00:33.044Z,22.80
2022-07-27T01:03:02.483Z,22.80
2022-07-27T01:05:42.558Z,22.80
2022-07-27T01:08:12.364Z,22.80
2022-07-27T01:10:41.297Z,22.80
2022-07-27T01:13:12.833Z,22.70
2022-07-27T01:15:42.527Z,22.70
2022-07-27T01:18:13.785Z,22.70
2022-07-27T01:20:43.754Z,22.60
2022-07-27T01:23:13.079Z,22.60
2022-07-27T01:25:42.950Z,22.60
2022-07-27T01:28:11.188Z,22.60
2022-07-27T01:30:39.183Z,22.60
2022-07-27T01:33:09.192Z,22.60
2022-07-27T01:35:40.499Z,22.60
2022-07-27T01:38:10.074Z,22.60
2022-07-27T01:40:39.902Z,22.50
2022-07-27T01:43:08.210Z,22.50
2022-07-27T01:45:36.268Z,22.50
2022-07-27T01:48:04.232Z,22.50
2022-07-27T01:50:32.495Z,22.50
2022-07-27T01:53:00.323Z,22.50
2022-07-27T01:55:31.066Z,22.40
2022-07-27T01:58:10.218Z,22.40
2022-07-27T02:00:39.050Z,22.40
2022-07-27T02:03:08.602Z,22.40
2022-07-27T02:05:37.699Z,22.30
2022-07-27T02:08:06.860Z,22.30
2022-07-27T02:10:35.563Z,22.30
2022-07-27T02:13:02.879Z,22.30
2022-07-27T02:15:54.561Z,22.20
2022-07-27T02:18:33.435Z,22.30
2022-07-27T02:21:05.781Z,22.30
2022-07-27T02:23:34.444Z,22.30
2022-07-27T02:26:02.604Z,22.30
2022-07-27T02:28:30.551Z,22.20
2022-07-27T02:30:59.787Z,22.20
2022-07-27T02:33:28.012Z,22.10
2022-07-27T02:35:56.058Z,22.10
2022-07-27T02:38:23.914Z,22.10
2022-07-27T02:40:51.848Z,22.10
2022-07-27T02:43:19.725Z,22.10
2022-07-27T02:45:48.429Z,22.10
2022-07-27T02:48:17.840Z,22.00
2022-07-27T02:50:45.706Z,21.90
2022-07-27T02:53:13.560Z,21.90
2022-07-27T02:55:41.400Z,21.90
2022-07-27T02:58:09.263Z,21.90
2022-07-27T03:00:37.220Z,21.80
2022-07-27T03:03:05.211Z,21.70
2022-07-27T03:05:34.494Z,21.60
2022-07-27T03:08:04.068Z,21.50
2022-07-27T03:10:32.220Z,21.50
2022-07-27T03:13:00.193Z,21.40
2022-07-27T03:15:29.562Z,21.20
2022-07-27T03:17:57.866Z,21.20
2022-07-27T03:20:25.938Z,21.10
2022-07-27T03:22:55.598Z,21.10
2022-07-27T03:25:23.682Z,21.10
2022-07-27T03:27:51.836Z,21.10
2022-07-27T03:30:19.773Z,21.10
2022-07-27T03:32:48.244Z,21.10
2022-07-27T03:35:16.173Z,21.10
2022-07-27T03:37:44.086Z,21.20
2022-07-27T03:40:13.651Z,21.20
2022-07-27T03:42:41.748Z,21.20
2022-07-27T03:45:10.732Z,21.20
2022-07-27T03:47:38.712Z,21.20
2022-07-27T03:50:07.409Z,21.10
2022-07-27T03:52:35.368Z,21.20
2022-07-27T03:55:03.313Z,21.20
2022-07-27T03:57:32.956Z,21.20
2022-07-27T04:00:00.889Z,21.10
2022-07-27T04:02:29.107Z,21.00
2022-07-27T04:04:57.141Z,20.90
2022-07-27T04:07:25.041Z,20.80
2022-07-27T04:09:52.932Z,20.70
2022-07-27T04:12:20.841Z,20.70
2022-07-27T04:14:50.598Z,20.70
2022-07-27T04:17:55.051Z,20.60
2022-07-27T04:20:08.008Z,20.60
2022-07-27T04:22:35.932Z,20.60
2022-07-27T04:25:03.868Z,20.60
2022-07-27T04:27:31.785Z,20.60
2022-07-27T04:30:09.977Z,20.70
2022-07-27T04:32:37.928Z,20.70
2022-07-27T04:35:06.923Z,20.80
2022-07-27T04:37:34.996Z,20.80
2022-07-27T04:40:03.340Z,20.80
2022-07-27T04:42:31.348Z,20.90
2022-07-27T04:45:00.724Z,20.90
2022-07-27T04:47:28.711Z,20.90
2022-07-27T04:49:56.810Z,20.90
2022-07-27T04:52:26.911Z,21.00
2022-07-27T04:54:56.996Z,21.00
2022-07-27T04:57:24.942Z,21.00
2022-07-27T04:59:52.831Z,21.10
2022-07-27T05:02:22.656Z,21.10
2022-07-27T05:04:50.600Z,21.10
2022-07-27T05:07:19.048Z,21.10
2022-07-27T05:09:47.582Z,21.10
2022-07-27T05:12:15.474Z,21.10
2022-07-27T05:14:43.635Z,21.10
2022-07-27T05:17:11.660Z,21.10
2022-07-27T05:19:41.162Z,21.00
2022-07-27T05:22:09.367Z,20.90
2022-07-27T05:24:37.486Z,20.90
2022-07-27T05:27:06.607Z,20.80
2022-07-27T05:29:34.638Z,20.80
2022-07-27T05:32:02.751Z,20.80
2022-07-27T05:34:30.726Z,20.80
2022-07-27T05:37:00.057Z,20.80
2022-07-27T05:39:27.996Z,20.80
2022-07-27T05:41:55.900Z,20.90
2022-07-27T05:44:24.079Z,20.90
2022-07-27T05:46:52.005Z,21.10
2022-07-27T05:49:19.973Z,21.40
2022-07-27T05:51:47.932Z,21.90
2022-07-27T05:54:17.195Z,22.10
2022-07-27T05:56:45.119Z,22.20
2022-07-27T05:59:13.701Z,22.50
2022-07-27T06:01:41.833Z,23.30
2022-07-27T06:04:09.753Z,24.00
2022-07-27T06:07:00.339Z,24.20
2022-07-27T06:09:29.747Z,23.90
2022-07-27T06:11:57.629Z,23.60
2022-07-27T06:14:25.594Z,23.90
2022-07-27T06:16:53.650Z,24.50
2022-07-27T06:19:21.679Z,25.30
2022-07-27T06:21:53.597Z,26.00
2022-07-27T06:24:21.856Z,26.40
2022-07-27T06:26:51.559Z,26.10
2022-07-27T06:29:19.443Z,25.30
2022-07-27T06:31:47.431Z,24.50
2022-07-27T06:34:15.866Z,23.80
2022-07-27T06:36:45.323Z,23.40
2022-07-27T06:39:13.919Z,22.90
2022-07-27T06:41:42.129Z,22.60
2022-07-27T06:44:16.134Z,22.40
2022-07-27T06:46:44.168Z,22.30
2022-07-27T06:49:12.472Z,22.20
2022-07-27T06:51:40.988Z,22.10
2022-07-27T06:54:08.878Z,22.10
2022-07-27T06:56:36.848Z,22.10
2022-07-27T06:59:04.989Z,22.00
2022-07-27T07:01:34.418Z,22.00
2022-07-27T07:04:11.583Z,21.90
2022-07-27T07:06:39.528Z,21.80
2022-07-27T07:09:09.093Z,21.60
2022-07-27T07:11:37.587Z,21.50
2022-07-27T07:14:05.561Z,21.40
2022-07-27T07:16:34.835Z,21.30
2022-07-27T07:19:02.749Z,21.20
2022-07-27T07:21:30.667Z,21.10
2022-07-27T07:23:58.707Z,21.00
2022-07-27T07:26:26.708Z,20.90
2022-07-27T07:28:54.640Z,20.90
2022-07-27T07:31:22.661Z,20.90
2022-07-27T07:34:01.257Z,20.90
2022-07-27T07:36:29.182Z,20.90
2022-07-27T07:38:57.098Z,20.90
2022-07-27T07:41:25.060Z,20.90
2022-07-27T07:43:53.030Z,20.90
2022-07-27T07:46:20.940Z,21.00
2022-07-27T07:48:49.174Z,21.00
2022-07-27T07:51:18.477Z,20.90
2022-07-27T07:53:46.387Z,20.90
2022-07-27T07:56:15.202Z,21.00
2022-07-27T07:58:43.206Z,21.00
2022-07-27T08:01:12.259Z,21.10
2022-07-27T08:03:40.217Z,21.20
2022-07-27T08:06:08.357Z,21.20
2022-07-27T08:08:37.583Z,21.20
2022-07-27T08:11:05.527Z,21.20
2022-07-27T08:13:33.424Z,21.30
2022-07-27T08:16:01.548Z,21.40
2022-07-27T08:18:29.550Z,21.40
2022-07-27T08:20:57.468Z,21.40
2022-07-27T08:23:26.805Z,21.40
2022-07-27T08:25:56.082Z,21.50
2022-07-27T08:28:24.014Z,21.50
2022-07-27T08:30:51.958Z,21.40
2022-07-27T08:33:19.895Z,21.40
2022-07-27T08:35:47.878Z,21.40
2022-07-27T08:38:15.809Z,21.40
2022-07-27T08:40:52.737Z,21.40
2022-07-27T08:43:25.258Z,21.50
2022-07-27T08:45:58.771Z,21.50
2022-07-27T08:48:28.248Z,21.50
2022-07-27T08:50:56.570Z,21.60
2022-07-27T08:53:25.311Z,21.60
2022-07-27T08:55:53.339Z,21.60
2022-07-27T08:58:22.648Z,21.60
2022-07-27T09:00:50.864Z,21.60
2022-07-27T09:03:21.461Z,21.70
2022-07-27T09:05:51.405Z,21.70
2022-07-27T09:08:22.456Z,21.70
2022-07-27T09:10:51.337Z,21.70
2022-07-27T09:13:23.056Z,21.80
2022-07-27T09:18:41.331Z,21.90
2022-07-27T09:21:11.881Z,22.00
2022-07-27T09:23:40.721Z,22.10
2022-07-27T09:26:31.326Z,22.20
2022-07-27T09:29:04.528Z,22.20
2022-07-27T09:31:33.330Z,22.20
2022-07-27T09:34:03.291Z,22.30
2022-07-27T09:36:31.924Z,22.30
2022-07-27T09:39:03.514Z,22.40
2022-07-27T09:41:43.148Z,22.50
2022-07-27T09:44:31.947Z,22.50
2022-07-27T09:47:00.764Z,22.50
2022-07-27T09:49:31.243Z,22.60
2022-07-27T09:52:02.046Z,22.60
2022-07-27T09:54:43.793Z,22.70
2022-07-27T09:57:12.153Z,22.80
2022-07-27T09:59:41.583Z,22.80
2022-07-27T10:02:10.045Z,22.90
2022-07-27T10:04:38.204Z,23.00
2022-07-27T10:07:12.437Z,23.00
2022-07-27T10:09:41.988Z,23.10
2022-07-27T10:12:10.483Z,23.20
2022-07-27T10:14:38.451Z,23.20
2022-07-27T10:17:10.730Z,23.30
2022-07-27T10:19:46.113Z,23.30
2022-07-27T10:22:14.485Z,23.40
2022-07-27T10:24:42.647Z,23.40
2022-07-27T10:27:21.561Z,23.40
2022-07-27T10:29:50.466Z,23.30
2022-07-27T10:32:27.113Z,23.30
2022-07-27T10:34:55.141Z,23.40
2022-07-27T10:37:28.856Z,23.40
2022-07-27T10:40:13.191Z,23.50
2022-07-27T10:42:41.948Z,23.50
2022-07-27T10:45:11.609Z,23.60
2022-07-27T10:47:44.655Z,23.60
2022-07-27T10:50:25.922Z,23.70
2022-07-27T10:52:56.281Z,23.80
2022-07-27T10:55:52.768Z,23.80
2022-07-27T10:58:53.960Z,23.80
2022-07-27T11:01:23.707Z,23.80
2022-07-27T11:03:53.688Z,23.90
2022-07-27T11:06:32.908Z,23.80
2022-07-27T11:11:52.361Z,23.70
2022-07-27T11:14:30.577Z,23.70
2022-07-27T11:17:24.325Z,23.70
2022-07-27T11:19:54.848Z,23.80
2022-07-27T11:25:24.705Z,23.90
2022-07-27T11:27:53.190Z,23.80
2022-07-27T11:30:25.938Z,23.80
2022-07-27T11:32:54.337Z,23.70
2022-07-27T11:35:24.055Z,23.80
2022-07-27T11:38:00.207Z,23.90
2022-07-27T11:43:38.283Z,24.00
2022-07-27T11:46:17.396Z,24.10
2022-07-27T11:49:06.484Z,24.10
2022-07-27T11:51:39.063Z,24.10
2022-07-27T11:54:08.970Z,24.00
2022-07-27T11:56:38.904Z,24.10
2022-07-27T11:59:10.471Z,24.10
2022-07-27T12:01:40.126Z,24.20
2022-07-27T12:04:15.125Z,24.20
2022-07-27T12:06:49.931Z,24.20
2022-07-27T12:09:18.948Z,24.20
2022-07-27T12:12:05.916Z,24.30
2022-07-27T12:14:36.997Z,24.30
2022-07-27T12:17:22.030Z,24.30
2022-07-27T12:19:59.072Z,24.40
2022-07-27T12:22:31.627Z,24.40
2022-07-27T12:25:01.252Z,24.40
2022-07-27T12:27:30.523Z,24.40
2022-07-27T12:30:10.476Z,24.40
2022-07-27T12:32:41.521Z,24.50
2022-07-27T12:35:25.086Z,24.60
2022-07-27T12:38:03.525Z,24.60
2022-07-27T12:40:32.876Z,24.70
2022-07-27T12:43:02.441Z,24.70
2022-07-27T12:45:33.288Z,24.80
2022-07-27T12:48:09.568Z,24.80
2022-07-27T12:50:37.550Z,24.80
2022-07-27T12:53:07.045Z,24.80
2022-07-27T12:55:35.534Z,24.80
2022-07-27T12:58:03.845Z,24.80
2022-07-27T13:00:34.332Z,24.80
2022-07-27T13:03:03.434Z,24.80
2022-07-27T13:05:32.724Z,24.90
2022-07-27T13:08:01.492Z,24.80
2022-07-27T13:10:30.821Z,24.80
2022-07-27T13:12:59.145Z,24.80
2022-07-27T13:15:27.632Z,24.80
2022-07-27T13:17:55.890Z,24.80
2022-07-27T13:20:23.875Z,24.80
2022-07-27T13:22:53.342Z,24.80
2022-07-27T13:25:21.735Z,24.90
2022-07-27T13:27:51.458Z,24.90
2022-07-27T13:30:20.138Z,24.90
2022-07-27T13:32:48.368Z,24.90
2022-07-27T13:35:17.459Z,24.90
2022-07-27T13:37:46.261Z,25.00
2022-07-27T13:40:15.619Z,25.10
2022-07-27T13:42:43.573Z,25.10
2022-07-27T13:45:13.520Z,25.10
2022-07-27T13:47:41.949Z,25.20
2022-07-27T13:50:17.949Z,25.10
2022-07-27T13:52:47.418Z,25.10
2022-07-27T13:55:16.348Z,25.00
2022-07-27T13:57:44.834Z,24.90
2022-07-27T14:00:15.435Z,25.00
2022-07-27T14:02:44.026Z,25.00
2022-07-27T14:05:14.771Z,25.00
2022-07-27T14:07:44.603Z,25.00
2022-07-27T14:10:42.139Z,25.10
2022-07-27T14:13:12.087Z,25.10
2022-07-27T14:15:50.371Z,25.20
2022-07-27T14:18:22.322Z,25.20
2022-07-27T14:20:50.409Z,25.10
2022-07-27T14:23:18.305Z,25.10
2022-07-27T14:25:46.474Z,25.10
2022-07-27T14:28:14.627Z,25.10
2022-07-27T14:30:44.036Z,25.20
2022-07-27T14:33:12.065Z,25.20
2022-07-27T14:35:40.847Z,25.20
2022-07-27T14:38:09.558Z,25.20
2022-07-27T14:40:38.529Z,25.30
2022-07-27T14:43:07.259Z,25.40
2022-07-27T14:45:44.965Z,25.40
2022-07-27T14:48:23.026Z,25.40
2022-07-27T14:51:00.990Z,25.40
2022-07-27T14:53:29.236Z,25.40
2022-07-27T14:55:57.262Z,25.50
2022-07-27T14:58:25.316Z,25.50
2022-07-27T15:00:53.689Z,25.60
2022-07-27T15:03:23.245Z,25.80
2022-07-27T15:05:51.661Z,25.90
2022-07-27T15:08:20.368Z,26.00
2022-07-27T15:10:49.123Z,26.00
2022-07-27T15:13:17.726Z,26.10
2022-07-27T15:15:48.379Z,26.10
2022-07-27T15:18:19.257Z,26.10
2022-07-27T15:20:48.717Z,26.00
2022-07-27T15:23:16.830Z,25.90
2022-07-27T15:25:44.938Z,25.90
2022-07-27T15:28:13.095Z,25.90
2022-07-27T15:30:41.341Z,26.00
2022-07-27T15:33:09.341Z,26.00
2022-07-27T15:35:37.307Z,26.10
2022-07-27T15:38:06.814Z,26.00
2022-07-27T15:40:41.635Z,26.00
2022-07-27T15:43:11.848Z,25.90
2022-07-27T15:45:40.577Z,25.80
2022-07-27T15:48:10.018Z,25.70
2022-07-27T15:50:39.359Z,25.60
2022-07-27T15:53:08.851Z,25.50
2022-07-27T15:55:38.277Z,25.50
2022-07-27T15:58:06.428Z,25.40
2022-07-27T16:00:39.595Z,25.40
2022-07-27T16:03:09.779Z,25.40
2022-07-27T16:05:38.223Z,25.40
2022-07-27T16:08:09.691Z,25.30
2022-07-27T16:10:37.796Z,25.30
2022-07-27T16:13:06.439Z,25.30
2022-07-27T16:15:52.133Z,25.30
2022-07-27T16:18:20.379Z,25.30
2022-07-27T16:20:48.366Z,25.40
2022-07-27T16:23:19.000Z,25.40
2022-07-27T16:26:08.078Z,25.50
2022-07-27T16:28:39.668Z,25.50
2022-07-27T16:31:10.284Z,25.60
2022-07-27T16:33:39.090Z,25.60
2022-07-27T16:36:08.650Z,25.70
2022-07-27T16:38:47.629Z,25.70
2022-07-27T16:41:19.706Z,25.60
2022-07-27T16:43:47.723Z,25.60
2022-07-27T16:46:17.100Z,25.60
2022-07-27T16:48:45.629Z,25.50
2022-07-27T16:51:14.781Z,25.50
2022-07-27T16:53:47.901Z,25.40
2022-07-27T16:56:15.885Z,25.40
2022-07-27T16:58:45.146Z,25.40
2022-07-27T17:01:26.109Z,25.40
2022-07-27T17:03:56.273Z,25.50
2022-07-27T17:06:25.835Z,25.50
2022-07-27T17:08:55.337Z,25.50
2022-07-27T17:11:23.630Z,25.50
2022-07-27T17:13:59.594Z,25.50
2022-07-27T17:16:28.344Z,25.50
2022-07-27T17:18:56.325Z,25.50
2022-07-27T17:21:24.240Z,25.50
2022-07-27T17:23:52.181Z,25.50
2022-07-27T17:26:22.389Z,25.40
2022-07-27T17:28:52.369Z,25.40
2022-07-27T17:31:21.204Z,25.40
2022-07-27T17:33:49.665Z,25.40
2022-07-27T17:36:17.741Z,25.40
2022-07-27T17:38:46.617Z,25.50
2022-07-27T17:41:21.741Z,25.50
2022-07-27T17:43:54.179Z,25.50
2022-07-27T17:46:22.867Z,25.50
2022-07-27T17:48:51.132Z,25.50
2022-07-27T17:51:19.129Z,25.50
2022-07-27T17:53:47.634Z,25.60
2022-07-27T17:56:15.507Z,25.50
2022-07-27T17:58:43.796Z,25.50
2022-07-27T18:01:13.132Z,25.40
2022-07-27T18:03:41.629Z,25.30
2022-07-27T18:06:09.492Z,25.30
2022-07-27T18:08:37.382Z,25.30
2022-07-27T18:11:05.496Z,25.20
2022-07-27T18:13:39.150Z,25.20
2022-07-27T18:16:11.585Z,25.20
2022-07-27T18:18:41.949Z,25.20
2022-07-27T18:21:10.559Z,25.20
2022-07-27T18:23:39.267Z,25.20
2022-07-27T18:26:07.384Z,25.10
2022-07-27T18:28:39.537Z,25.00
2022-07-27T18:31:09.574Z,25.00
2022-07-27T18:33:38.128Z,25.00
2022-07-27T18:36:08.210Z,24.90
2022-07-27T18:38:36.120Z,24.90
2022-07-27T18:41:04.057Z,24.80
2022-07-27T18:43:32.121Z,24.70
2022-07-27T18:46:00.324Z,24.60
2022-07-27T18:48:28.735Z,24.60
2022-07-27T18:50:56.968Z,24.50
2022-07-27T18:53:26.233Z,24.50
2022-07-27T18:55:56.531Z,24.40
2022-07-27T18:58:25.335Z,24.30
2022-07-27T19:00:54.567Z,24.30
2022-07-27T19:03:24.633Z,24.30
2022-07-27T19:05:56.050Z,24.20
2022-07-27T19:08:24.190Z,24.20
2022-07-27T19:10:54.013Z,24.20
2022-07-27T19:13:22.229Z,24.20
2022-07-27T19:15:50.219Z,24.20
2022-07-27T19:18:18.531Z,24.10
2022-07-27T19:20:46.618Z,24.10
2022-07-27T19:23:14.594Z,24.10
2022-07-27T19:25:43.451Z,24.10
2022-07-27T19:28:16.468Z,24.00
2022-07-27T19:30:44.466Z,24.00
2022-07-27T19:33:12.423Z,24.00
2022-07-27T19:35:40.489Z,23.90
2022-07-27T19:38:08.755Z,23.90
2022-07-27T19:40:45.573Z,23.80
2022-07-27T19:43:15.938Z,23.80
2022-07-27T19:45:44.325Z,23.80
2022-07-27T19:48:12.473Z,23.70
2022-07-27T19:50:40.887Z,23.70
2022-07-27T19:53:09.206Z,23.60
2022-07-27T19:55:37.227Z,23.60
2022-07-27T19:58:05.165Z,23.50
2022-07-27T20:00:34.428Z,23.50
2022-07-27T20:03:03.087Z,23.40
2022-07-27T20:05:31.241Z,23.30
2022-07-27T20:07:59.202Z,23.30
2022-07-27T20:10:27.100Z,23.30
2022-07-27T20:12:55.122Z,23.30
2022-07-27T20:15:23.184Z,23.20
2022-07-27T20:17:52.577Z,23.10
2022-07-27T20:20:20.555Z,23.00
2022-07-27T20:22:48.896Z,23.00
2022-07-27T20:25:18.396Z,23.00
2022-07-27T20:27:46.989Z,22.90
2022-07-27T20:30:17.227Z,22.80
2022-07-27T20:32:45.768Z,22.70
2022-07-27T20:35:15.400Z,22.70
2022-07-27T20:37:43.578Z,22.60
2022-07-27T20:40:12.510Z,22.60
2022-07-27T20:42:41.205Z,22.50
2022-07-27T20:45:14.257Z,22.50
2022-07-27T20:47:42.567Z,22.40
2022-07-27T20:50:13.161Z,22.30
2022-07-27T20:52:43.492Z,22.30
2022-07-27T20:55:12.133Z,22.30
2022-07-27T20:57:40.276Z,22.20
2022-07-27T21:00:09.607Z,22.20
2022-07-27T21:02:38.792Z,22.10
2022-07-27T21:05:08.480Z,22.10
2022-07-27T21:07:36.343Z,22.10
2022-07-27T21:10:06.450Z,22.00
2022-07-27T21:12:34.385Z,22.00
2022-07-27T21:15:02.487Z,22.00
2022-07-27T21:17:30.489Z,21.90
2022-07-27T21:19:58.457Z,21.90
2022-07-27T21:22:27.077Z,21.90
2022-07-27T21:24:54.978Z,21.90
2022-07-27T21:27:25.335Z,21.90
2022-07-27T21:29:54.307Z,21.90
2022-07-27T21:32:22.212Z,21.90
2022-07-27T21:34:50.342Z,21.90
2022-07-27T21:37:18.446Z,21.90
2022-07-27T21:39:46.589Z,21.80
2022-07-27T21:42:14.660Z,21.80
2022-07-27T21:44:43.869Z,21.70
2022-07-27T21:47:14.240Z,21.70
2022-07-27T21:49:42.908Z,21.70
2022-07-27T21:52:12.072Z,21.60
2022-07-27T21:54:40.574Z,21.60
2022-07-27T21:57:08.570Z,21.60
2022-07-27T21:59:36.575Z,21.50
2022-07-27T22:02:05.842Z,21.50
2022-07-27T22:04:34.018Z,21.40
2022-07-27T22:07:01.943Z,21.40
2022-07-27T22:09:30.187Z,21.40
2022-07-27T22:11:58.269Z,21.40
2022-07-27T22:14:26.220Z,21.40
2022-07-27T22:16:54.243Z,21.40
2022-07-27T22:19:23.986Z,21.40
2022-07-27T22:21:51.937Z,21.40
2022-07-27T22:24:19.794Z,21.40
2022-07-27T22:26:49.092Z,21.40
2022-07-27T22:29:16.968Z,21.40
2022-07-27T22:31:44.895Z,21.30
2022-07-27T22:34:13.026Z,21.30
2022-07-27T22:36:42.519Z,21.20
2022-07-27T22:39:10.436Z,21.20
2022-07-27T22:41:38.303Z,21.20
2022-07-27T22:44:06.357Z,21.20
2022-07-27T22:46:34.315Z,21.20
2022-07-27T22:49:02.753Z,21.20
2022-07-27T22:51:48.665Z,21.20
2022-07-27T22:54:19.362Z,21.20
2022-07-27T22:56:47.616Z,21.20
2022-07-27T22:59:15.519Z,21.20
2022-07-27T23:01:46.049Z,21.20
2022-07-27T23:04:17.172Z,21.20
2022-07-27T23:06:45.749Z,21.20
2022-07-27T23:09:14.013Z,21.20
2022-07-27T23:11:43.960Z,21.10
2022-07-27T23:14:12.497Z,21.10
2022-07-27T23:16:40.685Z,21.00
2022-07-27T23:19:08.867Z,21.00
2022-07-27T23:21:37.503Z,20.90
2022-07-27T23:24:05.836Z,20.90
2022-07-27T23:26:33.769Z,20.80
2022-07-27T23:29:03.468Z,20.80
2022-07-27T23:31:31.502Z,20.80
2022-07-27T23:33:59.431Z,20.70
2022-07-27T23:36:27.400Z,20.70
2022-07-27T23:38:55.374Z,20.70
2022-07-27T23:41:23.299Z,20.70
2022-07-27T23:43:51.161Z,20.70
2022-07-27T23:46:20.580Z,20.70
2022-07-27T23:48:48.572Z,20.70
2022-07-27T23:51:19.598Z,20.60
2022-07-27T23:53:47.718Z,20.60
2022-07-27T23:56:15.636Z,20.60
2022-07-27T23:58:43.514Z,20.60
